sensor_id;sensor_type;location;lat;lon;timestamp;P1;durP1;ratioP1;P2;durP2;ratioP2
34767;SDS011;21755;43.608;1.236;2023-02-15T00:01:11;19.48;;;7.65;;
34767;SDS011;21755;43.608;1.236;2023-02-15T00:03:37;15.65;;;6.60;;
34767;SDS011;21755;43.608;1.236;2023-02-15T00:06:03;12.80;;;6.57;;
34767;SDS011;21755;43.608;1.236;2023-02-15T00:08:30;15.23;;;7.55;;
34767;SDS011;21755;43.608;1.236;2023-02-15T00:11:05;18.48;;;7.43;;
34767;SDS011;21755;43.608;1.236;2023-02-15T00:13:35;13.50;;;7.85;;
34767;SDS011;21755;43.608;1.236;2023-02-15T00:16:03;16.08;;;7.50;;
34767;SDS011;21755;43.608;1.236;2023-02-15T00:18:31;13.13;;;7.10;;
34767;SDS011;21755;43.608;1.236;2023-02-15T00:20:57;13.70;;;7.70;;
34767;SDS011;21755;43.608;1.236;2023-02-15T00:23:27;13.32;;;6.93;;
34767;SDS011;21755;43.608;1.236;2023-02-15T00:26:02;19.50;;;7.60;;
34767;SDS011;21755;43.608;1.236;2023-02-15T00:28:32;14.10;;;7.10;;
34767;SDS011;21755;43.608;1.236;2023-02-15T00:33:34;13.55;;;7.47;;
34767;SDS011;21755;43.608;1.236;2023-02-15T00:36:01;19.23;;;8.07;;
34767;SDS011;21755;43.608;1.236;2023-02-15T00:38:29;21.90;;;8.85;;
34767;SDS011;21755;43.608;1.236;2023-02-15T00:40:56;16.45;;;7.40;;
34767;SDS011;21755;43.608;1.236;2023-02-15T00:43:23;14.10;;;8.20;;
34767;SDS011;21755;43.608;1.236;2023-02-15T00:45:50;16.52;;;7.68;;
34767;SDS011;21755;43.608;1.236;2023-02-15T00:48:16;17.92;;;7.63;;
34767;SDS011;21755;43.608;1.236;2023-02-15T00:50:46;17.05;;;7.80;;
34767;SDS011;21755;43.608;1.236;2023-02-15T00:53:13;17.88;;;7.78;;
34767;SDS011;21755;43.608;1.236;2023-02-15T00:55:39;19.58;;;8.88;;
34767;SDS011;21755;43.608;1.236;2023-02-15T00:58:06;16.98;;;8.32;;
34767;SDS011;21755;43.608;1.236;2023-02-15T01:00:32;16.63;;;8.60;;
34767;SDS011;21755;43.608;1.236;2023-02-15T01:02:58;20.27;;;9.07;;
34767;SDS011;21755;43.608;1.236;2023-02-15T01:05:24;21.00;;;8.63;;
34767;SDS011;21755;43.608;1.236;2023-02-15T01:07:50;22.45;;;8.45;;
34767;SDS011;21755;43.608;1.236;2023-02-15T01:10:16;20.75;;;8.00;;
34767;SDS011;21755;43.608;1.236;2023-02-15T01:12:42;28.60;;;9.23;;
34767;SDS011;21755;43.608;1.236;2023-02-15T01:15:08;18.38;;;8.00;;
34767;SDS011;21755;43.608;1.236;2023-02-15T01:17:34;20.40;;;8.30;;
34767;SDS011;21755;43.608;1.236;2023-02-15T01:20:00;20.23;;;7.90;;
34767;SDS011;21755;43.608;1.236;2023-02-15T01:22:26;17.90;;;7.82;;
34767;SDS011;21755;43.608;1.236;2023-02-15T01:24:52;17.45;;;6.93;;
34767;SDS011;21755;43.608;1.236;2023-02-15T01:27:18;14.75;;;7.43;;
34767;SDS011;21755;43.608;1.236;2023-02-15T01:29:44;19.92;;;7.85;;
34767;SDS011;21755;43.608;1.236;2023-02-15T01:32:10;21.38;;;8.52;;
34767;SDS011;21755;43.608;1.236;2023-02-15T01:34:36;14.73;;;8.77;;
34767;SDS011;21755;43.608;1.236;2023-02-15T01:37:02;15.18;;;7.88;;
34767;SDS011;21755;43.608;1.236;2023-02-15T01:39:28;20.58;;;8.23;;
34767;SDS011;21755;43.608;1.236;2023-02-15T01:41:53;22.65;;;8.45;;
34767;SDS011;21755;43.608;1.236;2023-02-15T01:44:40;16.67;;;8.05;;
34767;SDS011;21755;43.608;1.236;2023-02-15T01:47:12;19.05;;;8.20;;
34767;SDS011;21755;43.608;1.236;2023-02-15T01:49:43;17.17;;;7.65;;
34767;SDS011;21755;43.608;1.236;2023-02-15T01:52:11;15.63;;;8.52;;
34767;SDS011;21755;43.608;1.236;2023-02-15T01:54:42;20.25;;;8.60;;
34767;SDS011;21755;43.608;1.236;2023-02-15T01:57:14;20.15;;;8.32;;
34767;SDS011;21755;43.608;1.236;2023-02-15T01:59:44;18.10;;;8.65;;
34767;SDS011;21755;43.608;1.236;2023-02-15T02:02:13;17.52;;;8.70;;
34767;SDS011;21755;43.608;1.236;2023-02-15T02:04:45;19.88;;;8.57;;
34767;SDS011;21755;43.608;1.236;2023-02-15T02:07:15;17.85;;;7.68;;
34767;SDS011;21755;43.608;1.236;2023-02-15T02:09:44;18.45;;;8.50;;
34767;SDS011;21755;43.608;1.236;2023-02-15T02:12:10;20.75;;;8.45;;
34767;SDS011;21755;43.608;1.236;2023-02-15T02:14:36;22.88;;;9.10;;
34767;SDS011;21755;43.608;1.236;2023-02-15T02:17:16;16.88;;;8.55;;
34767;SDS011;21755;43.608;1.236;2023-02-15T02:31:24;13.48;;;8.18;;
34767;SDS011;21755;43.608;1.236;2023-02-15T02:34:04;15.20;;;8.65;;
34767;SDS011;21755;43.608;1.236;2023-02-15T02:36:40;17.52;;;8.98;;
34767;SDS011;21755;43.608;1.236;2023-02-15T02:39:29;18.60;;;9.40;;
34767;SDS011;21755;43.608;1.236;2023-02-15T02:42:48;16.45;;;8.05;;
34767;SDS011;21755;43.608;1.236;2023-02-15T02:45:09;19.45;;;9.57;;
34767;SDS011;21755;43.608;1.236;2023-02-15T02:47:46;19.13;;;10.63;;
34767;SDS011;21755;43.608;1.236;2023-02-15T02:50:21;23.05;;;9.07;;
34767;SDS011;21755;43.608;1.236;2023-02-15T02:52:49;17.52;;;8.68;;
34767;SDS011;21755;43.608;1.236;2023-02-15T02:55:25;18.30;;;9.48;;
34767;SDS011;21755;43.608;1.236;2023-02-15T02:58:07;23.38;;;9.68;;
34767;SDS011;21755;43.608;1.236;2023-02-15T03:03:21;21.63;;;9.48;;
34767;SDS011;21755;43.608;1.236;2023-02-15T03:06:03;25.08;;;10.07;;
34767;SDS011;21755;43.608;1.236;2023-02-15T03:08:47;27.50;;;9.73;;
34767;SDS011;21755;43.608;1.236;2023-02-15T03:11:16;20.88;;;10.07;;
34767;SDS011;21755;43.608;1.236;2023-02-15T03:13:42;25.83;;;10.50;;
34767;SDS011;21755;43.608;1.236;2023-02-15T03:16:11;23.60;;;10.98;;
34767;SDS011;21755;43.608;1.236;2023-02-15T03:24:16;18.02;;;9.50;;
34767;SDS011;21755;43.608;1.236;2023-02-15T03:29:15;25.48;;;10.45;;
34767;SDS011;21755;43.608;1.236;2023-02-15T03:31:44;18.75;;;9.93;;
34767;SDS011;21755;43.608;1.236;2023-02-15T03:34:15;20.90;;;10.48;;
34767;SDS011;21755;43.608;1.236;2023-02-15T03:39:22;23.42;;;10.10;;
34767;SDS011;21755;43.608;1.236;2023-02-15T03:42:24;14.25;;;9.10;;
34767;SDS011;21755;43.608;1.236;2023-02-15T03:45:08;18.80;;;8.65;;
34767;SDS011;21755;43.608;1.236;2023-02-15T03:47:38;23.23;;;9.20;;
34767;SDS011;21755;43.608;1.236;2023-02-15T03:53:06;23.98;;;9.32;;
34767;SDS011;21755;43.608;1.236;2023-02-15T03:55:35;23.00;;;10.10;;
34767;SDS011;21755;43.608;1.236;2023-02-15T03:58:02;19.70;;;10.48;;
34767;SDS011;21755;43.608;1.236;2023-02-15T04:00:55;18.48;;;9.55;;
34767;SDS011;21755;43.608;1.236;2023-02-15T04:03:44;15.70;;;9.18;;
34767;SDS011;21755;43.608;1.236;2023-02-15T04:06:15;24.15;;;10.70;;
34767;SDS011;21755;43.608;1.236;2023-02-15T04:08:41;20.38;;;10.30;;
34767;SDS011;21755;43.608;1.236;2023-02-15T04:11:25;28.17;;;11.68;;
34767;SDS011;21755;43.608;1.236;2023-02-15T04:13:51;19.60;;;9.93;;
34767;SDS011;21755;43.608;1.236;2023-02-15T04:16:24;18.50;;;9.98;;
34767;SDS011;21755;43.608;1.236;2023-02-15T04:18:50;22.23;;;11.23;;
34767;SDS011;21755;43.608;1.236;2023-02-15T04:21:35;20.85;;;10.02;;
34767;SDS011;21755;43.608;1.236;2023-02-15T04:24:19;23.98;;;10.48;;
34767;SDS011;21755;43.608;1.236;2023-02-15T04:27:04;18.83;;;8.93;;
34767;SDS011;21755;43.608;1.236;2023-02-15T04:29:31;24.42;;;9.63;;
34767;SDS011;21755;43.608;1.236;2023-02-15T04:31:59;22.02;;;10.65;;
34767;SDS011;21755;43.608;1.236;2023-02-15T04:34:26;23.65;;;11.23;;
34767;SDS011;21755;43.608;1.236;2023-02-15T04:36:52;23.52;;;9.82;;
34767;SDS011;21755;43.608;1.236;2023-02-15T04:39:18;19.10;;;10.38;;
34767;SDS011;21755;43.608;1.236;2023-02-15T04:41:44;24.83;;;11.27;;
34767;SDS011;21755;43.608;1.236;2023-02-15T04:44:10;23.30;;;10.65;;
34767;SDS011;21755;43.608;1.236;2023-02-15T04:46:37;17.52;;;9.25;;
34767;SDS011;21755;43.608;1.236;2023-02-15T04:49:03;19.38;;;9.65;;
34767;SDS011;21755;43.608;1.236;2023-02-15T04:51:29;14.13;;;9.00;;
34767;SDS011;21755;43.608;1.236;2023-02-15T04:53:55;18.42;;;9.43;;
34767;SDS011;21755;43.608;1.236;2023-02-15T04:56:21;20.70;;;9.32;;
34767;SDS011;21755;43.608;1.236;2023-02-15T04:58:47;20.75;;;10.43;;
34767;SDS011;21755;43.608;1.236;2023-02-15T05:01:13;23.75;;;10.90;;
34767;SDS011;21755;43.608;1.236;2023-02-15T05:03:39;23.30;;;9.98;;
34767;SDS011;21755;43.608;1.236;2023-02-15T05:06:05;22.35;;;11.13;;
34767;SDS011;21755;43.608;1.236;2023-02-15T05:08:31;23.23;;;11.25;;
34767;SDS011;21755;43.608;1.236;2023-02-15T05:10:57;23.08;;;9.57;;
34767;SDS011;21755;43.608;1.236;2023-02-15T05:13:23;19.23;;;10.20;;
34767;SDS011;21755;43.608;1.236;2023-02-15T05:15:50;21.02;;;10.00;;
34767;SDS011;21755;43.608;1.236;2023-02-15T05:18:17;20.00;;;10.23;;
34767;SDS011;21755;43.608;1.236;2023-02-15T05:20:44;17.90;;;10.13;;
34767;SDS011;21755;43.608;1.236;2023-02-15T05:23:11;18.90;;;10.98;;
34767;SDS011;21755;43.608;1.236;2023-02-15T05:25:37;17.38;;;10.25;;
34767;SDS011;21755;43.608;1.236;2023-02-15T05:28:22;16.63;;;9.30;;
34767;SDS011;21755;43.608;1.236;2023-02-15T05:30:53;17.05;;;10.07;;
34767;SDS011;21755;43.608;1.236;2023-02-15T05:33:30;22.55;;;11.93;;
34767;SDS011;21755;43.608;1.236;2023-02-15T05:35:57;21.00;;;9.50;;
34767;SDS011;21755;43.608;1.236;2023-02-15T05:38:23;29.70;;;12.35;;
34767;SDS011;21755;43.608;1.236;2023-02-15T05:40:50;22.92;;;11.40;;
34767;SDS011;21755;43.608;1.236;2023-02-15T05:43:17;20.67;;;11.05;;
34767;SDS011;21755;43.608;1.236;2023-02-15T05:45:49;16.38;;;8.45;;
34767;SDS011;21755;43.608;1.236;2023-02-15T05:48:17;18.95;;;8.20;;
34767;SDS011;21755;43.608;1.236;2023-02-15T05:50:44;17.83;;;8.43;;
34767;SDS011;21755;43.608;1.236;2023-02-15T05:53:10;16.38;;;8.52;;
34767;SDS011;21755;43.608;1.236;2023-02-15T05:55:37;21.10;;;10.35;;
34767;SDS011;21755;43.608;1.236;2023-02-15T05:58:04;24.70;;;11.85;;
34767;SDS011;21755;43.608;1.236;2023-02-15T06:00:30;27.45;;;12.98;;
34767;SDS011;21755;43.608;1.236;2023-02-15T06:02:57;22.48;;;11.80;;
34767;SDS011;21755;43.608;1.236;2023-02-15T06:05:23;20.83;;;12.23;;
34767;SDS011;21755;43.608;1.236;2023-02-15T06:07:49;28.92;;;14.13;;
34767;SDS011;21755;43.608;1.236;2023-02-15T06:10:15;34.45;;;15.55;;
34767;SDS011;21755;43.608;1.236;2023-02-15T06:12:41;33.35;;;14.80;;
34767;SDS011;21755;43.608;1.236;2023-02-15T06:15:06;25.45;;;14.27;;
34767;SDS011;21755;43.608;1.236;2023-02-15T06:17:33;28.50;;;14.32;;
34767;SDS011;21755;43.608;1.236;2023-02-15T06:19:59;27.42;;;14.75;;
34767;SDS011;21755;43.608;1.236;2023-02-15T06:22:25;25.88;;;13.77;;
34767;SDS011;21755;43.608;1.236;2023-02-15T06:24:51;28.10;;;15.13;;
34767;SDS011;21755;43.608;1.236;2023-02-15T06:27:16;25.13;;;14.65;;
34767;SDS011;21755;43.608;1.236;2023-02-15T06:29:42;37.15;;;17.65;;
34767;SDS011;21755;43.608;1.236;2023-02-15T06:32:08;48.17;;;20.58;;
34767;SDS011;21755;43.608;1.236;2023-02-15T06:34:34;36.58;;;18.73;;
34767;SDS011;21755;43.608;1.236;2023-02-15T06:37:00;47.92;;;22.08;;
34767;SDS011;21755;43.608;1.236;2023-02-15T06:39:26;58.05;;;25.10;;
34767;SDS011;21755;43.608;1.236;2023-02-15T06:41:52;61.60;;;26.05;;
34767;SDS011;21755;43.608;1.236;2023-02-15T06:44:18;50.95;;;24.85;;
34767;SDS011;21755;43.608;1.236;2023-02-15T06:46:44;46.88;;;22.25;;
34767;SDS011;21755;43.608;1.236;2023-02-15T06:49:09;43.22;;;21.95;;
34767;SDS011;21755;43.608;1.236;2023-02-15T06:51:35;37.58;;;20.00;;
34767;SDS011;21755;43.608;1.236;2023-02-15T06:54:01;53.40;;;22.30;;
34767;SDS011;21755;43.608;1.236;2023-02-15T06:56:27;39.17;;;19.10;;
34767;SDS011;21755;43.608;1.236;2023-02-15T06:58:54;32.67;;;17.73;;
34767;SDS011;21755;43.608;1.236;2023-02-15T07:01:20;35.10;;;17.58;;
34767;SDS011;21755;43.608;1.236;2023-02-15T07:03:46;31.65;;;16.02;;
34767;SDS011;21755;43.608;1.236;2023-02-15T07:06:12;38.25;;;20.10;;
34767;SDS011;21755;43.608;1.236;2023-02-15T07:08:38;40.45;;;18.75;;
34767;SDS011;21755;43.608;1.236;2023-02-15T07:11:04;29.67;;;15.73;;
34767;SDS011;21755;43.608;1.236;2023-02-15T07:13:49;28.70;;;15.30;;
34767;SDS011;21755;43.608;1.236;2023-02-15T07:16:17;25.90;;;13.93;;
34767;SDS011;21755;43.608;1.236;2023-02-15T07:18:44;27.35;;;15.73;;
34767;SDS011;21755;43.608;1.236;2023-02-15T07:21:10;38.67;;;18.23;;
34767;SDS011;21755;43.608;1.236;2023-02-15T07:23:36;33.78;;;18.30;;
34767;SDS011;21755;43.608;1.236;2023-02-15T07:26:03;29.63;;;15.40;;
34767;SDS011;21755;43.608;1.236;2023-02-15T07:28:30;27.65;;;14.27;;
34767;SDS011;21755;43.608;1.236;2023-02-15T07:30:56;26.75;;;14.73;;
34767;SDS011;21755;43.608;1.236;2023-02-15T07:33:23;29.95;;;15.85;;
34767;SDS011;21755;43.608;1.236;2023-02-15T07:35:49;28.20;;;14.45;;
34767;SDS011;21755;43.608;1.236;2023-02-15T07:38:18;31.50;;;14.38;;
34767;SDS011;21755;43.608;1.236;2023-02-15T07:40:44;31.27;;;13.88;;
34767;SDS011;21755;43.608;1.236;2023-02-15T07:43:10;26.90;;;13.20;;
34767;SDS011;21755;43.608;1.236;2023-02-15T07:45:37;20.98;;;9.50;;
34767;SDS011;21755;43.608;1.236;2023-02-15T07:48:03;29.92;;;13.15;;
34767;SDS011;21755;43.608;1.236;2023-02-15T07:50:29;38.08;;;15.00;;
34767;SDS011;21755;43.608;1.236;2023-02-15T07:52:56;44.60;;;18.58;;
34767;SDS011;21755;43.608;1.236;2023-02-15T07:55:22;48.95;;;21.83;;
34767;SDS011;21755;43.608;1.236;2023-02-15T07:57:50;38.47;;;21.05;;
34767;SDS011;21755;43.608;1.236;2023-02-15T08:00:19;30.65;;;18.55;;
34767;SDS011;21755;43.608;1.236;2023-02-15T08:02:53;36.67;;;19.45;;
34767;SDS011;21755;43.608;1.236;2023-02-15T08:05:46;36.38;;;20.27;;
34767;SDS011;21755;43.608;1.236;2023-02-15T08:08:12;48.30;;;25.92;;
34767;SDS011;21755;43.608;1.236;2023-02-15T08:16:38;35.42;;;19.45;;
34767;SDS011;21755;43.608;1.236;2023-02-15T08:19:09;35.15;;;20.30;;
34767;SDS011;21755;43.608;1.236;2023-02-15T08:21:38;36.85;;;21.10;;
34767;SDS011;21755;43.608;1.236;2023-02-15T08:24:06;34.05;;;19.20;;
34767;SDS011;21755;43.608;1.236;2023-02-15T08:26:33;45.50;;;24.08;;
34767;SDS011;21755;43.608;1.236;2023-02-15T08:28:59;43.13;;;21.45;;
34767;SDS011;21755;43.608;1.236;2023-02-15T08:31:26;45.53;;;23.33;;
34767;SDS011;21755;43.608;1.236;2023-02-15T08:33:53;48.88;;;22.52;;
34767;SDS011;21755;43.608;1.236;2023-02-15T08:36:22;42.80;;;23.33;;
34767;SDS011;21755;43.608;1.236;2023-02-15T08:38:49;40.88;;;22.23;;
34767;SDS011;21755;43.608;1.236;2023-02-15T08:41:23;50.83;;;22.65;;
34767;SDS011;21755;43.608;1.236;2023-02-15T08:43:51;46.83;;;22.40;;
34767;SDS011;21755;43.608;1.236;2023-02-15T08:46:19;44.92;;;22.80;;
34767;SDS011;21755;43.608;1.236;2023-02-15T08:48:46;48.90;;;21.38;;
34767;SDS011;21755;43.608;1.236;2023-02-15T08:51:19;39.28;;;20.45;;
34767;SDS011;21755;43.608;1.236;2023-02-15T08:53:48;41.35;;;20.58;;
34767;SDS011;21755;43.608;1.236;2023-02-15T08:56:16;42.65;;;18.83;;
34767;SDS011;21755;43.608;1.236;2023-02-15T08:58:44;36.70;;;18.92;;
34767;SDS011;21755;43.608;1.236;2023-02-15T09:01:10;34.47;;;17.42;;
34767;SDS011;21755;43.608;1.236;2023-02-15T09:03:38;38.63;;;16.77;;
34767;SDS011;21755;43.608;1.236;2023-02-15T09:06:05;36.00;;;16.80;;
34767;SDS011;21755;43.608;1.236;2023-02-15T09:08:32;32.75;;;16.35;;
34767;SDS011;21755;43.608;1.236;2023-02-15T09:11:17;30.48;;;15.70;;
34767;SDS011;21755;43.608;1.236;2023-02-15T09:13:52;35.28;;;16.40;;
34767;SDS011;21755;43.608;1.236;2023-02-15T09:16:20;31.77;;;16.25;;
34767;SDS011;21755;43.608;1.236;2023-02-15T09:18:48;33.58;;;16.55;;
34767;SDS011;21755;43.608;1.236;2023-02-15T09:21:16;33.55;;;14.88;;
34767;SDS011;21755;43.608;1.236;2023-02-15T09:23:48;27.08;;;14.73;;
34767;SDS011;21755;43.608;1.236;2023-02-15T09:26:16;31.85;;;15.70;;
34767;SDS011;21755;43.608;1.236;2023-02-15T09:28:44;25.95;;;14.00;;
34767;SDS011;21755;43.608;1.236;2023-02-15T09:31:12;33.63;;;15.07;;
34767;SDS011;21755;43.608;1.236;2023-02-15T09:33:43;27.08;;;13.43;;
34767;SDS011;21755;43.608;1.236;2023-02-15T09:36:15;26.45;;;14.25;;
34767;SDS011;21755;43.608;1.236;2023-02-15T09:38:41;26.05;;;13.18;;
34767;SDS011;21755;43.608;1.236;2023-02-15T09:43:55;26.50;;;13.13;;
34767;SDS011;21755;43.608;1.236;2023-02-15T09:54:49;23.40;;;11.70;;
34767;SDS011;21755;43.608;1.236;2023-02-15T09:57:44;21.58;;;11.77;;
34767;SDS011;21755;43.608;1.236;2023-02-15T10:12:22;20.58;;;7.40;;
34767;SDS011;21755;43.608;1.236;2023-02-15T10:15:24;20.25;;;6.82;;
34767;SDS011;21755;43.608;1.236;2023-02-15T10:26:21;12.30;;;6.35;;
34767;SDS011;21755;43.608;1.236;2023-02-15T10:28:53;21.17;;;8.02;;
34767;SDS011;21755;43.608;1.236;2023-02-15T10:50:34;10.15;;;5.90;;
34767;SDS011;21755;43.608;1.236;2023-02-15T10:53:32;10.45;;;6.22;;
34767;SDS011;21755;43.608;1.236;2023-02-15T10:56:13;12.27;;;5.30;;
34767;SDS011;21755;43.608;1.236;2023-02-15T11:01:27;11.45;;;6.00;;
34767;SDS011;21755;43.608;1.236;2023-02-15T11:04:55;15.75;;;6.28;;
34767;SDS011;21755;43.608;1.236;2023-02-15T11:07:40;11.23;;;5.55;;
34767;SDS011;21755;43.608;1.236;2023-02-15T11:13:16;10.45;;;5.10;;
34767;SDS011;21755;43.608;1.236;2023-02-15T11:18:31;11.35;;;4.88;;
34767;SDS011;21755;43.608;1.236;2023-02-15T11:21:04;11.10;;;5.10;;
34767;SDS011;21755;43.608;1.236;2023-02-15T11:23:33;9.27;;;4.50;;
34767;SDS011;21755;43.608;1.236;2023-02-15T11:26:04;8.20;;;5.03;;
34767;SDS011;21755;43.608;1.236;2023-02-15T11:28:39;13.05;;;5.13;;
34767;SDS011;21755;43.608;1.236;2023-02-15T11:31:27;15.70;;;4.95;;
34767;SDS011;21755;43.608;1.236;2023-02-15T11:34:04;13.93;;;5.05;;
34767;SDS011;21755;43.608;1.236;2023-02-15T11:36:38;9.68;;;5.13;;
34767;SDS011;21755;43.608;1.236;2023-02-15T11:39:10;14.32;;;5.15;;
34767;SDS011;21755;43.608;1.236;2023-02-15T11:41:46;9.88;;;4.78;;
34767;SDS011;21755;43.608;1.236;2023-02-15T11:46:51;14.77;;;4.78;;
34767;SDS011;21755;43.608;1.236;2023-02-15T11:51:55;8.57;;;4.88;;
34767;SDS011;21755;43.608;1.236;2023-02-15T11:54:26;11.85;;;4.93;;
34767;SDS011;21755;43.608;1.236;2023-02-15T11:57:02;8.40;;;4.65;;
34767;SDS011;21755;43.608;1.236;2023-02-15T11:59:52;8.65;;;5.63;;
34767;SDS011;21755;43.608;1.236;2023-02-15T12:02:23;9.60;;;4.80;;
34767;SDS011;21755;43.608;1.236;2023-02-15T12:04:54;9.05;;;4.53;;
34767;SDS011;21755;43.608;1.236;2023-02-15T12:07:27;7.97;;;4.30;;
34767;SDS011;21755;43.608;1.236;2023-02-15T12:10:44;9.68;;;4.20;;
34767;SDS011;21755;43.608;1.236;2023-02-15T12:15:41;8.35;;;5.03;;
34767;SDS011;21755;43.608;1.236;2023-02-15T12:19:11;16.27;;;5.32;;
34767;SDS011;21755;43.608;1.236;2023-02-15T12:24:18;7.13;;;4.45;;
34767;SDS011;21755;43.608;1.236;2023-02-15T12:29:49;12.75;;;4.88;;
34767;SDS011;21755;43.608;1.236;2023-02-15T12:32:17;6.88;;;4.20;;
34767;SDS011;21755;43.608;1.236;2023-02-15T12:34:53;9.75;;;4.82;;
34767;SDS011;21755;43.608;1.236;2023-02-15T12:37:27;14.48;;;4.97;;
34767;SDS011;21755;43.608;1.236;2023-02-15T12:39:58;9.13;;;4.30;;
34767;SDS011;21755;43.608;1.236;2023-02-15T12:42:25;10.73;;;4.38;;
34767;SDS011;21755;43.608;1.236;2023-02-15T12:45:00;8.00;;;4.97;;
34767;SDS011;21755;43.608;1.236;2023-02-15T12:47:45;8.73;;;4.22;;
34767;SDS011;21755;43.608;1.236;2023-02-15T12:50:22;9.90;;;4.32;;
34767;SDS011;21755;43.608;1.236;2023-02-15T12:52:51;7.63;;;4.10;;
34767;SDS011;21755;43.608;1.236;2023-02-15T12:55:40;10.57;;;4.35;;
34767;SDS011;21755;43.608;1.236;2023-02-15T12:58:18;9.52;;;4.07;;
34767;SDS011;21755;43.608;1.236;2023-02-15T13:00:48;8.68;;;4.28;;
34767;SDS011;21755;43.608;1.236;2023-02-15T13:03:30;8.23;;;4.47;;
34767;SDS011;21755;43.608;1.236;2023-02-15T13:05:56;9.27;;;3.95;;
34767;SDS011;21755;43.608;1.236;2023-02-15T13:08:30;6.57;;;3.67;;
34767;SDS011;21755;43.608;1.236;2023-02-15T13:16:41;7.57;;;3.97;;
34767;SDS011;21755;43.608;1.236;2023-02-15T13:19:11;7.97;;;3.95;;
34767;SDS011;21755;43.608;1.236;2023-02-15T13:21:50;5.75;;;3.78;;
34767;SDS011;21755;43.608;1.236;2023-02-15T13:24:20;7.18;;;3.25;;
34767;SDS011;21755;43.608;1.236;2023-02-15T13:27:12;6.88;;;3.50;;
34767;SDS011;21755;43.608;1.236;2023-02-15T13:29:43;5.53;;;3.17;;
34767;SDS011;21755;43.608;1.236;2023-02-15T13:32:12;7.45;;;3.25;;
34767;SDS011;21755;43.608;1.236;2023-02-15T13:34:59;12.95;;;3.83;;
34767;SDS011;21755;43.608;1.236;2023-02-15T13:40:30;8.77;;;3.22;;
34767;SDS011;21755;43.608;1.236;2023-02-15T13:43:05;6.35;;;3.78;;
34767;SDS011;21755;43.608;1.236;2023-02-15T13:45:56;11.82;;;3.92;;
34767;SDS011;21755;43.608;1.236;2023-02-15T13:48:41;5.85;;;3.28;;
34767;SDS011;21755;43.608;1.236;2023-02-15T13:51:36;6.82;;;3.55;;
34767;SDS011;21755;43.608;1.236;2023-02-15T14:05:38;10.90;;;3.83;;
34767;SDS011;21755;43.608;1.236;2023-02-15T14:08:38;4.82;;;3.35;;
34767;SDS011;21755;43.608;1.236;2023-02-15T14:17:29;6.88;;;3.38;;
34767;SDS011;21755;43.608;1.236;2023-02-15T14:28:16;6.45;;;3.50;;
34767;SDS011;21755;43.608;1.236;2023-02-15T14:30:51;7.55;;;3.08;;
34767;SDS011;21755;43.608;1.236;2023-02-15T14:36:00;8.65;;;3.17;;
34767;SDS011;21755;43.608;1.236;2023-02-15T14:56:46;6.18;;;3.53;;
34767;SDS011;21755;43.608;1.236;2023-02-15T14:59:50;6.20;;;3.72;;
34767;SDS011;21755;43.608;1.236;2023-02-15T15:02:26;18.25;;;3.97;;
34767;SDS011;21755;43.608;1.236;2023-02-15T15:05:17;6.95;;;3.22;;
34767;SDS011;21755;43.608;1.236;2023-02-15T15:07:56;6.70;;;2.90;;
34767;SDS011;21755;43.608;1.236;2023-02-15T15:10:37;9.90;;;3.42;;
34767;SDS011;21755;43.608;1.236;2023-02-15T15:19:09;8.13;;;3.70;;
34767;SDS011;21755;43.608;1.236;2023-02-15T15:30:47;3.33;;;3.03;;
34767;SDS011;21755;43.608;1.236;2023-02-15T15:35:27;5.90;;;3.10;;
34767;SDS011;21755;43.608;1.236;2023-02-15T15:41:43;7.18;;;3.05;;
34767;SDS011;21755;43.608;1.236;2023-02-15T15:47:22;6.97;;;3.28;;
34767;SDS011;21755;43.608;1.236;2023-02-15T15:49:50;7.88;;;3.00;;
34767;SDS011;21755;43.608;1.236;2023-02-15T15:52:21;6.78;;;3.50;;
34767;SDS011;21755;43.608;1.236;2023-02-15T15:54:54;7.22;;;3.42;;
34767;SDS011;21755;43.608;1.236;2023-02-15T15:57:28;8.98;;;2.80;;
34767;SDS011;21755;43.608;1.236;2023-02-15T16:02:26;5.90;;;3.47;;
34767;SDS011;21755;43.608;1.236;2023-02-15T16:04:53;6.25;;;3.72;;
34767;SDS011;21755;43.608;1.236;2023-02-15T16:12:46;9.60;;;3.63;;
34767;SDS011;21755;43.608;1.236;2023-02-15T16:15:18;6.75;;;3.20;;
34767;SDS011;21755;43.608;1.236;2023-02-15T16:17:49;7.07;;;3.63;;
34767;SDS011;21755;43.608;1.236;2023-02-15T16:20:22;9.57;;;3.60;;
34767;SDS011;21755;43.608;1.236;2023-02-15T16:22:57;4.32;;;3.05;;
34767;SDS011;21755;43.608;1.236;2023-02-15T16:28:28;6.05;;;3.25;;
34767;SDS011;21755;43.608;1.236;2023-02-15T16:31:03;7.68;;;3.65;;
34767;SDS011;21755;43.608;1.236;2023-02-15T16:33:35;4.75;;;3.25;;
34767;SDS011;21755;43.608;1.236;2023-02-15T16:36:02;7.68;;;3.40;;
34767;SDS011;21755;43.608;1.236;2023-02-15T16:41:10;10.50;;;4.10;;
34767;SDS011;21755;43.608;1.236;2023-02-15T16:43:41;7.10;;;4.10;;
34767;SDS011;21755;43.608;1.236;2023-02-15T16:46:11;7.10;;;3.20;;
34767;SDS011;21755;43.608;1.236;2023-02-15T16:49:01;8.07;;;4.43;;
34767;SDS011;21755;43.608;1.236;2023-02-15T16:51:32;7.20;;;3.70;;
34767;SDS011;21755;43.608;1.236;2023-02-15T16:54:04;14.70;;;4.82;;
34767;SDS011;21755;43.608;1.236;2023-02-15T16:56:33;9.75;;;4.45;;
34767;SDS011;21755;43.608;1.236;2023-02-15T16:59:01;9.48;;;5.05;;
34767;SDS011;21755;43.608;1.236;2023-02-15T17:01:29;7.90;;;4.28;;
34767;SDS011;21755;43.608;1.236;2023-02-15T17:09:40;7.73;;;4.87;;
34767;SDS011;21755;43.608;1.236;2023-02-15T17:15:28;12.23;;;4.90;;
34767;SDS011;21755;43.608;1.236;2023-02-15T17:17:56;11.25;;;5.13;;
34767;SDS011;21755;43.608;1.236;2023-02-15T17:20:50;9.20;;;4.85;;
34767;SDS011;21755;43.608;1.236;2023-02-15T17:23:26;13.68;;;5.88;;
34767;SDS011;21755;43.608;1.236;2023-02-15T17:25:56;8.23;;;5.10;;
34767;SDS011;21755;43.608;1.236;2023-02-15T17:28:24;10.35;;;4.95;;
34767;SDS011;21755;43.608;1.236;2023-02-15T17:30:53;10.27;;;5.53;;
34767;SDS011;21755;43.608;1.236;2023-02-15T17:33:24;14.90;;;5.40;;
34767;SDS011;21755;43.608;1.236;2023-02-15T17:36:02;8.23;;;4.78;;
34767;SDS011;21755;43.608;1.236;2023-02-15T17:38:34;9.90;;;5.20;;
34767;SDS011;21755;43.608;1.236;2023-02-15T17:41:00;11.57;;;6.10;;
34767;SDS011;21755;43.608;1.236;2023-02-15T17:43:26;8.70;;;5.45;;
34767;SDS011;21755;43.608;1.236;2023-02-15T17:45:52;15.30;;;5.88;;
34767;SDS011;21755;43.608;1.236;2023-02-15T17:50:55;12.57;;;6.43;;
34767;SDS011;21755;43.608;1.236;2023-02-15T17:53:31;14.25;;;6.65;;
34767;SDS011;21755;43.608;1.236;2023-02-15T17:55:57;11.77;;;6.47;;
34767;SDS011;21755;43.608;1.236;2023-02-15T17:58:23;10.85;;;6.88;;
34767;SDS011;21755;43.608;1.236;2023-02-15T18:00:56;15.73;;;7.95;;
34767;SDS011;21755;43.608;1.236;2023-02-15T18:03:44;13.60;;;6.88;;
34767;SDS011;21755;43.608;1.236;2023-02-15T18:06:30;13.80;;;6.32;;
34767;SDS011;21755;43.608;1.236;2023-02-15T18:09:15;9.93;;;6.32;;
34767;SDS011;21755;43.608;1.236;2023-02-15T18:12:03;15.05;;;7.10;;
34767;SDS011;21755;43.608;1.236;2023-02-15T18:14:49;16.90;;;7.90;;
34767;SDS011;21755;43.608;1.236;2023-02-15T18:17:16;17.70;;;7.50;;
34767;SDS011;21755;43.608;1.236;2023-02-15T18:19:43;12.70;;;6.70;;
34767;SDS011;21755;43.608;1.236;2023-02-15T18:22:11;9.57;;;6.22;;
34767;SDS011;21755;43.608;1.236;2023-02-15T18:24:45;13.10;;;6.55;;
34767;SDS011;21755;43.608;1.236;2023-02-15T18:27:12;13.43;;;7.22;;
34767;SDS011;21755;43.608;1.236;2023-02-15T18:29:38;11.73;;;7.60;;
34767;SDS011;21755;43.608;1.236;2023-02-15T18:32:13;13.80;;;7.10;;
34767;SDS011;21755;43.608;1.236;2023-02-15T18:34:42;16.58;;;7.20;;